BENVENUTI AL 154° GRUPPO VIRTUALE
  • Home

Error

Category not found

METAR & TAF

[Source: ADDS]
METAR
LIPL 122255Z 07007KT CAVOK 20/18 Q1014 RMK SKC VIS MIN 9999 WIND THR31 07006KT WIND THR13 07006KT BLU =
LIPL 122300Z 1300/1309 05008KT CAVOK BECMG 1302/1304 27005KT
TAF
LIPL 122300Z 1300/1309 05008KT CAVOK BECMG 1302/1304 27005KT =

Notice: Undefined index: sun in /web/htdocs/www.154gruppovirtuale.it/home/modules/mod_wx/tmpl/default.php on line 13

Official Tools

CombatFlite Logo  
 
   

Network

Simulation Platform